sensor_id;sensor_type;location;lat;lon;timestamp;pressure;altitude;pressure_sealevel;temperature;humidity
21086;BME280;34247;50.064;19.970;2023-02-19T00:00:54;98996.59;;;9.50;98.32
21086;BME280;34247;50.064;19.970;2023-02-19T00:02:02;98993.28;;;9.46;98.80
21086;BME280;34247;50.064;19.970;2023-02-19T00:03:16;98994.47;;;9.42;99.22
21086;BME280;34247;50.064;19.970;2023-02-19T00:04:22;98997.00;;;9.44;99.11
21086;BME280;34247;50.064;19.970;2023-02-19T00:05:29;98988.41;;;9.40;98.86
21086;BME280;34247;50.064;19.970;2023-02-19T00:06:34;98994.47;;;9.42;99.02
21086;BME280;34247;50.064;19.970;2023-02-19T00:07:41;98992.22;;;9.36;99.19
21086;BME280;34247;50.064;19.970;2023-02-19T00:08:46;98996.34;;;9.27;99.92
21086;BME280;34247;50.064;19.970;2023-02-19T00:09:50;98994.28;;;9.18;100.00
21086;BME280;34247;50.064;19.970;2023-02-19T00:11:02;98989.94;;;9.17;99.99
21086;BME280;34247;50.064;19.970;2023-02-19T00:12:06;98978.91;;;9.10;100.00
21086;BME280;34247;50.064;19.970;2023-02-19T00:13:10;98979.03;;;9.09;100.00
21086;BME280;34247;50.064;19.970;2023-02-19T00:14:20;98979.13;;;9.07;100.00
21086;BME280;34247;50.064;19.970;2023-02-19T00:15:24;98975.75;;;9.05;100.00
21086;BME280;34247;50.064;19.970;2023-02-19T00:16:37;98972.22;;;9.05;99.87
21086;BME280;34247;50.064;19.970;2023-02-19T00:17:41;98979.31;;;9.04;99.86
21086;BME280;34247;50.064;19.970;2023-02-19T00:18:46;98973.63;;;9.10;99.85
21086;BME280;34247;50.064;19.970;2023-02-19T00:19:50;98971.94;;;9.09;99.58
21086;BME280;34247;50.064;19.970;2023-02-19T00:20:55;98976.28;;;9.10;99.16
21086;BME280;34247;50.064;19.970;2023-02-19T00:22:00;98966.44;;;9.13;99.27
21086;BME280;34247;50.064;19.970;2023-02-19T00:23:03;98962.41;;;9.07;99.03
21086;BME280;34247;50.064;19.970;2023-02-19T00:24:11;98982.53;;;9.09;99.12
21086;BME280;34247;50.064;19.970;2023-02-19T00:25:15;98986.34;;;9.05;98.98
21086;BME280;34247;50.064;19.970;2023-02-19T00:26:20;98988.47;;;9.13;99.02
21086;BME280;34247;50.064;19.970;2023-02-19T00:27:24;98996.72;;;9.08;99.08
21086;BME280;34247;50.064;19.970;2023-02-19T00:28:28;98996.59;;;9.10;99.14
21086;BME280;34247;50.064;19.970;2023-02-19T00:29:32;98995.47;;;9.14;98.91
21086;BME280;34247;50.064;19.970;2023-02-19T00:30:37;98997.78;;;9.19;98.55
21086;BME280;34247;50.064;19.970;2023-02-19T00:31:52;98999.69;;;9.17;98.74
21086;BME280;34247;50.064;19.970;2023-02-19T00:32:57;98994.94;;;9.22;98.63
21086;BME280;34247;50.064;19.970;2023-02-19T00:34:04;98986.06;;;9.23;98.68
21086;BME280;34247;50.064;19.970;2023-02-19T00:35:08;98981.38;;;9.26;98.25
21086;BME280;34247;50.064;19.970;2023-02-19T00:36:14;98993.78;;;9.26;98.74
21086;BME280;34247;50.064;19.970;2023-02-19T00:37:18;98983.94;;;9.28;98.78
21086;BME280;34247;50.064;19.970;2023-02-19T00:38:24;98989.31;;;9.26;98.65
21086;BME280;34247;50.064;19.970;2023-02-19T00:39:29;98979.25;;;9.19;98.56
21086;BME280;34247;50.064;19.970;2023-02-19T00:40:33;98971.97;;;9.22;98.75
21086;BME280;34247;50.064;19.970;2023-02-19T00:41:37;98976.59;;;9.19;98.85
21086;BME280;34247;50.064;19.970;2023-02-19T00:42:41;98975.75;;;9.18;98.49
21086;BME280;34247;50.064;19.970;2023-02-19T00:43:55;98978.22;;;9.21;98.70
21086;BME280;34247;50.064;19.970;2023-02-19T00:45:01;98971.97;;;9.22;98.36
21086;BME280;34247;50.064;19.970;2023-02-19T00:46:05;98963.47;;;9.17;98.40
21086;BME280;34247;50.064;19.970;2023-02-19T00:47:09;98966.00;;;9.19;98.48
21086;BME280;34247;50.064;19.970;2023-02-19T00:48:13;98958.72;;;9.22;98.17
21086;BME280;34247;50.064;19.970;2023-02-19T00:49:22;98960.09;;;9.15;97.93
21086;BME280;34247;50.064;19.970;2023-02-19T00:50:26;98955.34;;;9.20;98.20
21086;BME280;34247;50.064;19.970;2023-02-19T00:51:35;98954.69;;;9.17;97.93
21086;BME280;34247;50.064;19.970;2023-02-19T00:52:39;98964.13;;;9.21;98.12
21086;BME280;34247;50.064;19.970;2023-02-19T00:53:43;98965.06;;;9.20;98.03
21086;BME280;34247;50.064;19.970;2023-02-19T00:54:47;98958.28;;;9.16;97.95
21086;BME280;34247;50.064;19.970;2023-02-19T00:55:52;98964.00;;;9.09;97.78
21086;BME280;34247;50.064;19.970;2023-02-19T00:56:55;98968.22;;;9.12;97.90
21086;BME280;34247;50.064;19.970;2023-02-19T00:57:59;98966.00;;;9.19;98.16
21086;BME280;34247;50.064;19.970;2023-02-19T00:59:04;98966.34;;;9.14;97.84
21086;BME280;34247;50.064;19.970;2023-02-19T01:00:09;98962.63;;;9.17;97.61
21086;BME280;34247;50.064;19.970;2023-02-19T01:01:18;98962.94;;;9.12;97.74
21086;BME280;34247;50.064;19.970;2023-02-19T01:02:23;98962.50;;;9.18;97.82
21086;BME280;34247;50.064;19.970;2023-02-19T01:03:27;98953.22;;;9.13;97.78
21086;BME280;34247;50.064;19.970;2023-02-19T01:04:31;98959.88;;;9.05;97.99
21086;BME280;34247;50.064;19.970;2023-02-19T01:05:40;98966.09;;;9.04;98.16
21086;BME280;34247;50.064;19.970;2023-02-19T01:06:45;98953.41;;;9.09;98.42
21086;BME280;34247;50.064;19.970;2023-02-19T01:07:52;98963.59;;;9.16;98.28
21086;BME280;34247;50.064;19.970;2023-02-19T01:08:57;98968.88;;;9.16;98.04
21086;BME280;34247;50.064;19.970;2023-02-19T01:10:05;98970.56;;;9.17;97.83
21086;BME280;34247;50.064;19.970;2023-02-19T01:11:14;98960.72;;;9.19;97.72
21086;BME280;34247;50.064;19.970;2023-02-19T01:12:18;98957.03;;;9.21;97.48
21086;BME280;34247;50.064;19.970;2023-02-19T01:13:23;98960.41;;;9.23;97.83
21086;BME280;34247;50.064;19.970;2023-02-19T01:14:27;98962.00;;;9.26;97.55
21086;BME280;34247;50.064;19.970;2023-02-19T01:15:35;98956.06;;;9.22;97.40
21086;BME280;34247;50.064;19.970;2023-02-19T01:16:42;98956.59;;;9.15;97.99
21086;BME280;34247;50.064;19.970;2023-02-19T01:17:53;98949.78;;;9.10;98.30
21086;BME280;34247;50.064;19.970;2023-02-19T01:18:58;98953.63;;;9.06;98.48
21086;BME280;34247;50.064;19.970;2023-02-19T01:20:06;98938.47;;;9.08;98.48
21086;BME280;34247;50.064;19.970;2023-02-19T01:21:23;98940.16;;;9.09;98.39
21086;BME280;34247;50.064;19.970;2023-02-19T01:22:28;98947.91;;;9.13;98.43
21086;BME280;34247;50.064;19.970;2023-02-19T01:23:37;98944.59;;;9.09;98.79
21086;BME280;34247;50.064;19.970;2023-02-19T01:24:48;98938.47;;;9.08;98.34
21086;BME280;34247;50.064;19.970;2023-02-19T01:25:54;98950.00;;;9.07;98.96
21086;BME280;34247;50.064;19.970;2023-02-19T01:26:58;98949.88;;;8.96;99.10
21086;BME280;34247;50.064;19.970;2023-02-19T01:28:02;98940.69;;;9.02;98.91
21086;BME280;34247;50.064;19.970;2023-02-19T01:29:05;98945.13;;;9.01;98.71
21086;BME280;34247;50.064;19.970;2023-02-19T01:30:10;98936.63;;;8.96;98.83
21086;BME280;34247;50.064;19.970;2023-02-19T01:31:24;98935.38;;;9.02;98.40
21086;BME280;34247;50.064;19.970;2023-02-19T01:32:29;98925.88;;;8.99;98.01
21086;BME280;34247;50.064;19.970;2023-02-19T01:33:33;98937.28;;;9.00;97.85
21086;BME280;34247;50.064;19.970;2023-02-19T01:34:37;98935.78;;;8.96;97.54
21086;BME280;34247;50.064;19.970;2023-02-19T01:35:42;98939.19;;;8.98;97.34
21086;BME280;34247;50.064;19.970;2023-02-19T01:36:46;98937.59;;;8.95;97.25
21086;BME280;34247;50.064;19.970;2023-02-19T01:37:52;98947.56;;;8.92;97.54
21086;BME280;34247;50.064;19.970;2023-02-19T01:38:58;98938.56;;;8.94;97.45
21086;BME280;34247;50.064;19.970;2023-02-19T01:40:03;98946.50;;;8.94;97.18
21086;BME280;34247;50.064;19.970;2023-02-19T01:41:12;98933.03;;;8.97;96.71
21086;BME280;34247;50.064;19.970;2023-02-19T01:42:16;98943.09;;;8.92;96.82
21086;BME280;34247;50.064;19.970;2023-02-19T01:43:24;98929.66;;;8.95;96.91
21086;BME280;34247;50.064;19.970;2023-02-19T01:45:38;98939.09;;;8.99;96.69
21086;BME280;34247;50.064;19.970;2023-02-19T01:46:46;98931.88;;;9.01;96.46
21086;BME280;34247;50.064;19.970;2023-02-19T01:49:31;98928.19;;;9.04;96.64
21086;BME280;34247;50.064;19.970;2023-02-19T01:51:06;98931.03;;;9.01;96.89
21086;BME280;34247;50.064;19.970;2023-02-19T01:52:28;98931.03;;;9.01;97.60
21086;BME280;34247;50.064;19.970;2023-02-19T01:53:42;98921.09;;;9.04;97.25
21086;BME280;34247;50.064;19.970;2023-02-19T01:54:49;98919.63;;;9.00;97.62
21086;BME280;34247;50.064;19.970;2023-02-19T01:55:57;98924.06;;;9.00;97.95
21086;BME280;34247;50.064;19.970;2023-02-19T01:57:12;98922.38;;;8.99;98.25
21086;BME280;34247;50.064;19.970;2023-02-19T01:58:18;98920.25;;;8.91;98.75
21086;BME280;34247;50.064;19.970;2023-02-19T01:59:23;98916.63;;;8.92;99.57
21086;BME280;34247;50.064;19.970;2023-02-19T02:00:31;98922.66;;;8.94;99.46
21086;BME280;34247;50.064;19.970;2023-02-19T02:01:50;98919.81;;;8.97;99.27
21086;BME280;34247;50.064;19.970;2023-02-19T02:02:56;98914.19;;;8.89;99.98
21086;BME280;34247;50.064;19.970;2023-02-19T02:04:07;98911.53;;;8.89;100.00
21086;BME280;34247;50.064;19.970;2023-02-19T02:05:46;98913.66;;;8.84;100.00
21086;BME280;34247;50.064;19.970;2023-02-19T02:06:56;98913.84;;;8.81;100.00
21086;BME280;34247;50.064;19.970;2023-02-19T02:08:05;98926.97;;;8.82;100.00
21086;BME280;34247;50.064;19.970;2023-02-19T02:09:34;98924.25;;;8.84;100.00
21086;BME280;34247;50.064;19.970;2023-02-19T02:11:29;98916.31;;;8.84;100.00
21086;BME280;34247;50.064;19.970;2023-02-19T02:12:57;98926.00;;;8.71;100.00
21086;BME280;34247;50.064;19.970;2023-02-19T02:14:02;98928.03;;;8.80;100.00
21086;BME280;34247;50.064;19.970;2023-02-19T02:15:07;98920.50;;;8.74;100.00
21086;BME280;34247;50.064;19.970;2023-02-19T02:18:11;98922.97;;;8.77;100.00
21086;BME280;34247;50.064;19.970;2023-02-19T02:22:04;98923.81;;;8.77;100.00
21086;BME280;34247;50.064;19.970;2023-02-19T02:23:27;98929.19;;;8.76;100.00
21086;BME280;34247;50.064;19.970;2023-02-19T02:26:27;98932.88;;;8.73;100.00
21086;BME280;34247;50.064;19.970;2023-02-19T02:30:55;98925.25;;;8.69;100.00
21086;BME280;34247;50.064;19.970;2023-02-19T02:32:20;98931.31;;;8.71;100.00
21086;BME280;34247;50.064;19.970;2023-02-19T02:35:05;98932.47;;;8.79;100.00
21086;BME280;34247;50.064;19.970;2023-02-19T02:36:32;98938.00;;;8.76;100.00
21086;BME280;34247;50.064;19.970;2023-02-19T02:37:42;98935.03;;;8.81;100.00
21086;BME280;34247;50.064;19.970;2023-02-19T02:38:48;98930.78;;;8.78;100.00
21086;BME280;34247;50.064;19.970;2023-02-19T02:39:53;98928.16;;;8.78;100.00
21086;BME280;34247;50.064;19.970;2023-02-19T02:41:07;98920.84;;;8.82;100.00
21086;BME280;34247;50.064;19.970;2023-02-19T02:42:14;98925.38;;;8.80;100.00
21086;BME280;34247;50.064;19.970;2023-02-19T02:43:30;98920.09;;;8.80;100.00
21086;BME280;34247;50.064;19.970;2023-02-19T02:44:36;98914.69;;;8.81;100.00
21086;BME280;34247;50.064;19.970;2023-02-19T02:45:44;98925.50;;;8.78;100.00
21086;BME280;34247;50.064;19.970;2023-02-19T02:46:51;98927.31;;;8.78;100.00
21086;BME280;34247;50.064;19.970;2023-02-19T02:47:57;98922.97;;;8.77;100.00
21086;BME280;34247;50.064;19.970;2023-02-19T02:49:19;98921.91;;;8.79;100.00
21086;BME280;34247;50.064;19.970;2023-02-19T02:50:57;98921.34;;;8.74;100.00
21086;BME280;34247;50.064;19.970;2023-02-19T02:52:00;98923.59;;;8.80;100.00
21086;BME280;34247;50.064;19.970;2023-02-19T02:55:12;98917.44;;;8.80;100.00
21086;BME280;34247;50.064;19.970;2023-02-19T02:56:21;98915.75;;;8.79;100.00
21086;BME280;34247;50.064;19.970;2023-02-19T02:57:25;98909.28;;;8.83;100.00
21086;BME280;34247;50.064;19.970;2023-02-19T02:58:31;98908.16;;;8.87;100.00
21086;BME280;34247;50.064;19.970;2023-02-19T02:59:40;98907.41;;;8.85;100.00
21086;BME280;34247;50.064;19.970;2023-02-19T03:02:25;98904.75;;;8.85;100.00
21086;BME280;34247;50.064;19.970;2023-02-19T03:03:34;98911.19;;;8.81;100.00
21086;BME280;34247;50.064;19.970;2023-02-19T03:05:07;98912.38;;;8.77;100.00
21086;BME280;34247;50.064;19.970;2023-02-19T03:06:36;98913.28;;;8.76;100.00
21086;BME280;34247;50.064;19.970;2023-02-19T03:08:09;98913.22;;;8.77;100.00
21086;BME280;34247;50.064;19.970;2023-02-19T03:09:27;98922.13;;;8.76;100.00
21086;BME280;34247;50.064;19.970;2023-02-19T03:11:52;98914.06;;;8.78;100.00
21086;BME280;34247;50.064;19.970;2023-02-19T03:13:34;98922.41;;;8.72;100.00
21086;BME280;34247;50.064;19.970;2023-02-19T03:15:06;98914.25;;;8.75;100.00
21086;BME280;34247;50.064;19.970;2023-02-19T03:16:37;98912.66;;;8.72;100.00
21086;BME280;34247;50.064;19.970;2023-02-19T03:18:08;98913.13;;;8.79;100.00
21086;BME280;34247;50.064;19.970;2023-02-19T03:19:41;98909.41;;;8.81;100.00
21086;BME280;34247;50.064;19.970;2023-02-19T03:20:52;98898.69;;;8.83;100.00
21086;BME280;34247;50.064;19.970;2023-02-19T03:22:13;98903.81;;;8.86;100.00
21086;BME280;34247;50.064;19.970;2023-02-19T03:23:20;98908.16;;;8.87;100.00
21086;BME280;34247;50.064;19.970;2023-02-19T03:24:59;98898.81;;;8.81;100.00
21086;BME280;34247;50.064;19.970;2023-02-19T03:26:24;98887.91;;;8.73;100.00
21086;BME280;34247;50.064;19.970;2023-02-19T03:27:31;98896.28;;;8.80;100.00
21086;BME280;34247;50.064;19.970;2023-02-19T03:28:39;98889.91;;;8.82;100.00
21086;BME280;34247;50.064;19.970;2023-02-19T03:30:18;98886.75;;;8.77;100.00
21086;BME280;34247;50.064;19.970;2023-02-19T03:31:29;98886.44;;;8.82;100.00
21086;BME280;34247;50.064;19.970;2023-02-19T03:33:07;98888.03;;;8.84;100.00
21086;BME280;34247;50.064;19.970;2023-02-19T03:34:21;98886.31;;;8.83;100.00
21086;BME280;34247;50.064;19.970;2023-02-19T03:35:32;98888.97;;;8.83;100.00
21086;BME280;34247;50.064;19.970;2023-02-19T03:36:45;98883.78;;;8.82;100.00
21086;BME280;34247;50.064;19.970;2023-02-19T03:38:08;98882.09;;;8.81;100.00
21086;BME280;34247;50.064;19.970;2023-02-19T03:39:19;98885.38;;;8.72;100.00
21086;BME280;34247;50.064;19.970;2023-02-19T03:40:28;98893.00;;;8.76;100.00
21086;BME280;34247;50.064;19.970;2023-02-19T03:43:02;98878.59;;;8.80;100.00
21086;BME280;34247;50.064;19.970;2023-02-19T03:43:56;98873.19;;;8.82;100.00
21086;BME280;34247;50.064;19.970;2023-02-19T03:48:32;98870.03;;;8.77;100.00
21086;BME280;34247;50.064;19.970;2023-02-19T03:50:28;98870.66;;;8.80;100.00
21086;BME280;34247;50.064;19.970;2023-02-19T03:51:45;98871.63;;;8.79;100.00
21086;BME280;34247;50.064;19.970;2023-02-19T03:53:08;98872.47;;;8.80;100.00
21086;BME280;34247;50.064;19.970;2023-02-19T03:54:37;98876.25;;;8.76;100.00
21086;BME280;34247;50.064;19.970;2023-02-19T03:56:05;98876.25;;;8.76;100.00
21086;BME280;34247;50.064;19.970;2023-02-19T03:58:47;98871.72;;;8.78;100.00
21086;BME280;34247;50.064;19.970;2023-02-19T04:00:12;98874.66;;;8.73;100.00
21086;BME280;34247;50.064;19.970;2023-02-19T04:01:54;98866.00;;;8.71;100.00
21086;BME280;34247;50.064;19.970;2023-02-19T04:03:34;98868.53;;;8.73;100.00
21086;BME280;34247;50.064;19.970;2023-02-19T04:04:50;98872.13;;;8.72;100.00
21086;BME280;34247;50.064;19.970;2023-02-19T04:06:08;98873.72;;;8.74;100.00
21086;BME280;34247;50.064;19.970;2023-02-19T04:07:14;98871.28;;;8.71;100.00
21086;BME280;34247;50.064;19.970;2023-02-19T04:08:22;98870.22;;;8.74;100.00
21086;BME280;34247;50.064;19.970;2023-02-19T04:09:42;98864.81;;;8.75;100.00
21086;BME280;34247;50.064;19.970;2023-02-19T04:10:50;98868.13;;;8.79;100.00
21086;BME280;34247;50.064;19.970;2023-02-19T04:11:57;98867.69;;;8.72;100.00
21086;BME280;34247;50.064;19.970;2023-02-19T04:13:09;98865.25;;;8.69;100.00
21086;BME280;34247;50.064;19.970;2023-02-19T04:14:28;98860.81;;;8.70;100.00
21086;BME280;34247;50.064;19.970;2023-02-19T04:15:34;98868.53;;;8.73;100.00
21086;BME280;34247;50.064;19.970;2023-02-19T04:16:48;98853.63;;;8.72;100.00
21086;BME280;34247;50.064;19.970;2023-02-19T04:18:04;98852.88;;;8.70;100.00
21086;BME280;34247;50.064;19.970;2023-02-19T04:19:18;98855.31;;;8.73;100.00
21086;BME280;34247;50.064;19.970;2023-02-19T04:20:27;98857.00;;;8.74;100.00
21086;BME280;34247;50.064;19.970;2023-02-19T04:21:39;98855.63;;;8.81;100.00
21086;BME280;34247;50.064;19.970;2023-02-19T04:22:44;98850.13;;;8.71;100.00
21086;BME280;34247;50.064;19.970;2023-02-19T04:23:48;98851.81;;;8.72;100.00
21086;BME280;34247;50.064;19.970;2023-02-19T04:24:53;98845.88;;;8.69;100.00
21086;BME280;34247;50.064;19.970;2023-02-19T04:26:00;98848.63;;;8.67;100.00
21086;BME280;34247;50.064;19.970;2023-02-19T04:27:08;98844.81;;;8.71;100.00
21086;BME280;34247;50.064;19.970;2023-02-19T04:28:14;98844.94;;;8.70;100.00
21086;BME280;34247;50.064;19.970;2023-02-19T04:29:19;98842.19;;;8.71;100.00
21086;BME280;34247;50.064;19.970;2023-02-19T04:30:23;98843.03;;;8.72;100.00
21086;BME280;34247;50.064;19.970;2023-02-19T04:31:30;98843.97;;;8.71;100.00
21086;BME280;34247;50.064;19.970;2023-02-19T04:32:38;98845.44;;;8.75;100.00
21086;BME280;34247;50.064;19.970;2023-02-19T04:33:42;98836.56;;;8.76;100.00
21086;BME280;34247;50.064;19.970;2023-02-19T04:34:46;98830.34;;;8.77;100.00
21086;BME280;34247;50.064;19.970;2023-02-19T04:35:50;98825.91;;;8.77;100.00
21086;BME280;34247;50.064;19.970;2023-02-19T04:36:54;98827.69;;;8.77;100.00
21086;BME280;34247;50.064;19.970;2023-02-19T04:37:58;98819.09;;;8.73;100.00
21086;BME280;34247;50.064;19.970;2023-02-19T04:39:02;98820.34;;;8.68;100.00
21086;BME280;34247;50.064;19.970;2023-02-19T04:40:08;98823.97;;;8.67;100.00
21086;BME280;34247;50.064;19.970;2023-02-19T04:41:12;98823.22;;;8.65;100.00
21086;BME280;34247;50.064;19.970;2023-02-19T04:42:17;98816.88;;;8.67;100.00
21086;BME280;34247;50.064;19.970;2023-02-19T04:43:22;98826.59;;;8.67;100.00
21086;BME280;34247;50.064;19.970;2023-02-19T04:44:26;98821.31;;;8.67;100.00
21086;BME280;34247;50.064;19.970;2023-02-19T04:45:30;98830.94;;;8.68;100.00
21086;BME280;34247;50.064;19.970;2023-02-19T04:46:33;98827.66;;;8.64;100.00
21086;BME280;34247;50.064;19.970;2023-02-19T04:47:38;98827.78;;;8.63;100.00
21086;BME280;34247;50.064;19.970;2023-02-19T04:48:45;98828.41;;;8.66;100.00
21086;BME280;34247;50.064;19.970;2023-02-19T04:49:52;98828.09;;;8.71;100.00
21086;BME280;34247;50.064;19.970;2023-02-19T04:50:58;98828.09;;;8.71;100.00
21086;BME280;34247;50.064;19.970;2023-02-19T04:52:03;98828.94;;;8.71;100.00
21086;BME280;34247;50.064;19.970;2023-02-19T04:53:07;98837.63;;;8.73;100.00
21086;BME280;34247;50.064;19.970;2023-02-19T04:54:11;98830.66;;;8.72;100.00
21086;BME280;34247;50.064;19.970;2023-02-19T04:55:15;98831.50;;;8.73;100.00
21086;BME280;34247;50.064;19.970;2023-02-19T04:56:19;98830.94;;;8.68;100.00
21086;BME280;34247;50.064;19.970;2023-02-19T04:57:23;98838.69;;;8.71;100.00
21086;BME280;34247;50.064;19.970;2023-02-19T04:58:27;98836.78;;;8.73;100.00
21086;BME280;34247;50.064;19.970;2023-02-19T04:59:36;98835.50;;;8.66;100.00
21086;BME280;34247;50.064;19.970;2023-02-19T05:00:40;98824.81;;;8.67;100.00
21086;BME280;34247;50.064;19.970;2023-02-19T05:01:45;98825.56;;;8.69;100.00
21086;BME280;34247;50.064;19.970;2023-02-19T05:02:50;98829.25;;;8.67;100.00
21086;BME280;34247;50.064;19.970;2023-02-19T05:03:55;98820.28;;;8.69;100.00
21086;BME280;34247;50.064;19.970;2023-02-19T05:05:01;98820.28;;;8.69;100.00
21086;BME280;34247;50.064;19.970;2023-02-19T05:06:09;98821.97;;;8.70;100.00
21086;BME280;34247;50.064;19.970;2023-02-19T05:07:14;98826.50;;;8.68;100.00
21086;BME280;34247;50.064;19.970;2023-02-19T05:08:24;98826.19;;;8.73;100.00
21086;BME280;34247;50.064;19.970;2023-02-19T05:09:28;98828.72;;;8.74;100.00
21086;BME280;34247;50.064;19.970;2023-02-19T05:10:31;98824.28;;;8.75;100.00
21086;BME280;34247;50.064;19.970;2023-02-19T05:11:36;98819.84;;;8.75;100.00
21086;BME280;34247;50.064;19.970;2023-02-19T05:12:39;98821.53;;;8.64;100.00
21086;BME280;34247;50.064;19.970;2023-02-19T05:13:43;98828.72;;;8.62;100.00
21086;BME280;34247;50.064;19.970;2023-02-19T05:14:47;98823.00;;;8.68;100.00
21086;BME280;34247;50.064;19.970;2023-02-19T05:16:07;98821.31;;;8.67;100.00
21086;BME280;34247;50.064;19.970;2023-02-19T05:17:11;98817.28;;;8.61;100.00
21086;BME280;34247;50.064;19.970;2023-02-19T05:18:15;98813.59;;;8.64;100.00
21086;BME280;34247;50.064;19.970;2023-02-19T05:19:19;98814.34;;;8.66;100.00
21086;BME280;34247;50.064;19.970;2023-02-19T05:20:23;98812.22;;;8.58;100.00
21086;BME280;34247;50.064;19.970;2023-02-19T05:21:27;98810.09;;;8.63;100.00
21086;BME280;34247;50.064;19.970;2023-02-19T05:23:43;98810.63;;;8.68;100.00
21086;BME280;34247;50.064;19.970;2023-02-19T05:24:47;98815.41;;;8.63;100.00
21086;BME280;34247;50.064;19.970;2023-02-19T05:25:51;98811.78;;;8.64;100.00
21086;BME280;34247;50.064;19.970;2023-02-19T05:26:55;98811.16;;;8.61;100.00
21086;BME280;34247;50.064;19.970;2023-02-19T05:27:59;98805.22;;;8.57;100.00
21086;BME280;34247;50.064;19.970;2023-02-19T05:29:19;98805.66;;;8.64;100.00
21086;BME280;34247;50.064;19.970;2023-02-19T05:30:23;98800.38;;;8.64;100.00
21086;BME280;34247;50.064;19.970;2023-02-19T05:31:27;98805.44;;;8.67;100.00
21086;BME280;34247;50.064;19.970;2023-02-19T05:32:34;98793.72;;;8.71;100.00
21086;BME280;34247;50.064;19.970;2023-02-19T05:33:38;98791.38;;;8.66;100.00
21086;BME280;34247;50.064;19.970;2023-02-19T05:34:43;98793.16;;;8.66;100.00
21086;BME280;34247;50.064;19.970;2023-02-19T05:35:53;98797.84;;;8.62;100.00
21086;BME280;34247;50.064;19.970;2023-02-19T05:36:58;98790.94;;;8.60;100.00
21086;BME280;34247;50.064;19.970;2023-02-19T05:38:03;98787.25;;;8.62;100.00
21086;BME280;34247;50.064;19.970;2023-02-19T05:39:11;98789.78;;;8.64;100.00
21086;BME280;34247;50.064;19.970;2023-02-19T05:40:15;98786.06;;;8.66;100.00
21086;BME280;34247;50.064;19.970;2023-02-19T05:41:26;98782.81;;;8.63;100.00
21086;BME280;34247;50.064;19.970;2023-02-19T05:42:30;98785.22;;;8.53;100.00
21086;BME280;34247;50.064;19.970;2023-02-19T05:43:34;98786.91;;;8.54;100.00
21086;BME280;34247;50.064;19.970;2023-02-19T05:44:41;98779.06;;;8.52;100.00
21086;BME280;34247;50.064;19.970;2023-02-19T05:45:45;98783.63;;;8.50;100.00
21086;BME280;34247;50.064;19.970;2023-02-19T05:46:49;98783.22;;;8.56;100.00
21086;BME280;34247;50.064;19.970;2023-02-19T05:47:53;98775.28;;;8.56;100.00
21086;BME280;34247;50.064;19.970;2023-02-19T05:49:01;98772.53;;;8.58;100.00
21086;BME280;34247;50.064;19.970;2023-02-19T05:50:06;98769.56;;;8.63;100.00
21086;BME280;34247;50.064;19.970;2023-02-19T05:51:16;98757.41;;;8.47;100.00
21086;BME280;34247;50.064;19.970;2023-02-19T05:52:25;98771.56;;;8.46;100.00
21086;BME280;34247;50.064;19.970;2023-02-19T05:53:28;98764.16;;;8.51;100.00
21086;BME280;34247;50.064;19.970;2023-02-19T05:54:33;98760.88;;;8.48;100.00
21086;BME280;34247;50.064;19.970;2023-02-19T05:55:37;98760.06;;;8.47;100.00
21086;BME280;34247;50.064;19.970;2023-02-19T05:56:41;98763.94;;;8.54;100.00
21086;BME280;34247;50.064;19.970;2023-02-19T05:57:47;98761.75;;;8.48;100.00
21086;BME280;34247;50.064;19.970;2023-02-19T05:58:53;98774.53;;;8.54;100.00
21086;BME280;34247;50.064;19.970;2023-02-19T05:59:59;98779.91;;;8.53;100.00
21086;BME280;34247;50.064;19.970;2023-02-19T06:01:18;98775.06;;;8.60;100.00
21086;BME280;34247;50.064;19.970;2023-02-19T06:02:23;98783.84;;;8.60;100.00
21086;BME280;34247;50.064;19.970;2023-02-19T06:03:26;98782.03;;;8.61;100.00
21086;BME280;34247;50.064;19.970;2023-02-19T06:04:30;98779.22;;;8.64;100.00
21086;BME280;34247;50.064;19.970;2023-02-19T06:05:36;98780.69;;;8.68;100.00
21086;BME280;34247;50.064;19.970;2023-02-19T06:06:42;98781.63;;;8.67;100.00
21086;BME280;34247;50.064;19.970;2023-02-19T06:07:47;98780.47;;;8.71;100.00
21086;BME280;34247;50.064;19.970;2023-02-19T06:08:53;98782.06;;;8.73;100.00
21086;BME280;34247;50.064;19.970;2023-02-19T06:09:57;98780.16;;;8.75;100.00
21086;BME280;34247;50.064;19.970;2023-02-19T06:11:01;98784.50;;;8.76;100.00
21086;BME280;34247;50.064;19.970;2023-02-19T06:12:05;98774.66;;;8.78;100.00
21086;BME280;34247;50.064;19.970;2023-02-19T06:13:11;98769.25;;;8.80;100.00
21086;BME280;34247;50.064;19.970;2023-02-19T06:14:15;98769.25;;;8.80;100.00
21086;BME280;34247;50.064;19.970;2023-02-19T06:15:19;98764.59;;;8.83;100.00
21086;BME280;34247;50.064;19.970;2023-02-19T06:16:25;98762.47;;;8.76;100.00
21086;BME280;34247;50.064;19.970;2023-02-19T06:17:30;98765.88;;;8.78;100.00
21086;BME280;34247;50.064;19.970;2023-02-19T06:18:36;98768.81;;;8.73;100.00
21086;BME280;34247;50.064;19.970;2023-02-19T06:19:39;98759.81;;;8.76;100.00
21086;BME280;34247;50.064;19.970;2023-02-19T06:20:47;98757.72;;;8.81;100.00
21086;BME280;34247;50.064;19.970;2023-02-19T06:21:51;98752.41;;;8.81;100.00
21086;BME280;34247;50.064;19.970;2023-02-19T06:22:58;98748.50;;;8.74;100.00
21086;BME280;34247;50.064;19.970;2023-02-19T06:24:09;98747.66;;;8.73;100.00
21086;BME280;34247;50.064;19.970;2023-02-19T06:25:14;98756.97;;;8.79;100.00
21086;BME280;34247;50.064;19.970;2023-02-19T06:26:22;98749.88;;;8.79;100.00
21086;BME280;34247;50.064;19.970;2023-02-19T06:27:27;98747.47;;;8.76;100.00
21086;BME280;34247;50.064;19.970;2023-02-19T06:28:31;98747.00;;;8.82;100.00
21086;BME280;34247;50.064;19.970;2023-02-19T06:29:35;98752.22;;;8.84;100.00
21086;BME280;34247;50.064;19.970;2023-02-19T06:30:41;98743.94;;;8.76;100.00